sensor_id;sensor_type;location;lat;lon;timestamp;pressure;altitude;pressure_sealevel;temperature;humidity
72942;BME280;69665;55.822;37.330;2024-03-25T00:02:00;97816.06;;;6.66;55.98
72942;BME280;69665;55.822;37.330;2024-03-25T00:04:26;97829.00;;;6.69;55.82
72942;BME280;69665;55.822;37.330;2024-03-25T00:06:52;97830.69;;;6.53;56.03
72942;BME280;69665;55.822;37.330;2024-03-25T00:09:18;97841.84;;;6.57;55.79
72942;BME280;69665;55.822;37.330;2024-03-25T00:11:44;97856.06;;;6.51;56.02
72942;BME280;69665;55.822;37.330;2024-03-25T00:14:09;97863.81;;;6.53;55.52
72942;BME280;69665;55.822;37.330;2024-03-25T00:16:35;97827.47;;;6.31;56.04
72942;BME280;69665;55.822;37.330;2024-03-25T00:19:01;97825.84;;;6.28;55.76
72942;BME280;69665;55.822;37.330;2024-03-25T00:21:27;97843.78;;;6.36;55.43
72942;BME280;69665;55.822;37.330;2024-03-25T00:23:53;97857.25;;;6.45;56.04
72942;BME280;69665;55.822;37.330;2024-03-25T00:26:22;97850.84;;;6.34;55.61
72942;BME280;69665;55.822;37.330;2024-03-25T00:28:48;97864.97;;;6.30;56.28
72942;BME280;69665;55.822;37.330;2024-03-25T00:31:14;97873.13;;;6.24;55.82
72942;BME280;69665;55.822;37.330;2024-03-25T00:33:40;97881.06;;;6.22;55.85
72942;BME280;69665;55.822;37.330;2024-03-25T00:36:07;97878.75;;;6.16;56.21
72942;BME280;69665;55.822;37.330;2024-03-25T00:38:33;97889.41;;;6.11;56.42
72942;BME280;69665;55.822;37.330;2024-03-25T00:40:58;97869.16;;;5.98;56.45
72942;BME280;69665;55.822;37.330;2024-03-25T00:43:24;97888.50;;;6.12;55.76
72942;BME280;69665;55.822;37.330;2024-03-25T00:45:50;97884.19;;;6.11;56.15
72942;BME280;69665;55.822;37.330;2024-03-25T00:48:15;97879.72;;;6.13;56.17
72942;BME280;69665;55.822;37.330;2024-03-25T00:50:41;97891.81;;;6.16;55.91
72942;BME280;69665;55.822;37.330;2024-03-25T00:53:07;97895.47;;;6.12;56.44
72942;BME280;69665;55.822;37.330;2024-03-25T00:55:34;97901.78;;;6.08;56.10
72942;BME280;69665;55.822;37.330;2024-03-25T00:58:02;97877.38;;;5.90;56.29
72942;BME280;69665;55.822;37.330;2024-03-25T01:00:27;97904.41;;;5.89;56.32
72942;BME280;69665;55.822;37.330;2024-03-25T01:02:53;97904.16;;;5.75;56.31
72942;BME280;69665;55.822;37.330;2024-03-25T01:05:19;97914.50;;;5.59;56.68
72942;BME280;69665;55.822;37.330;2024-03-25T01:07:44;97888.06;;;5.28;56.91
72942;BME280;69665;55.822;37.330;2024-03-25T01:10:10;97928.09;;;5.47;56.80
72942;BME280;69665;55.822;37.330;2024-03-25T01:12:36;97937.53;;;5.50;56.86
72942;BME280;69665;55.822;37.330;2024-03-25T01:15:01;97929.00;;;5.46;56.66
72942;BME280;69665;55.822;37.330;2024-03-25T01:17:29;97910.13;;;5.41;57.60
72942;BME280;69665;55.822;37.330;2024-03-25T01:19:55;97933.16;;;5.50;57.20
72942;BME280;69665;55.822;37.330;2024-03-25T01:22:21;97945.31;;;5.51;57.68
72942;BME280;69665;55.822;37.330;2024-03-25T01:24:46;97907.53;;;5.21;56.77
72942;BME280;69665;55.822;37.330;2024-03-25T01:27:12;97927.03;;;5.32;56.61
72942;BME280;69665;55.822;37.330;2024-03-25T01:29:38;97927.09;;;5.31;57.03
72942;BME280;69665;55.822;37.330;2024-03-25T01:32:04;97931.78;;;5.43;55.80
72942;BME280;69665;55.822;37.330;2024-03-25T01:34:30;97929.69;;;5.31;56.97
72942;BME280;69665;55.822;37.330;2024-03-25T01:36:56;97937.97;;;5.40;56.80
72942;BME280;69665;55.822;37.330;2024-03-25T01:39:23;97943.97;;;5.42;57.02
72942;BME280;69665;55.822;37.330;2024-03-25T01:41:50;97947.50;;;5.41;56.85
72942;BME280;69665;55.822;37.330;2024-03-25T01:44:16;97936.09;;;5.44;56.49
72942;BME280;69665;55.822;37.330;2024-03-25T01:46:42;97943.69;;;5.49;56.51
72942;BME280;69665;55.822;37.330;2024-03-25T01:49:08;97934.44;;;5.41;56.69
72942;BME280;69665;55.822;37.330;2024-03-25T01:51:35;97969.13;;;5.64;56.32
72942;BME280;69665;55.822;37.330;2024-03-25T01:54:02;97941.00;;;5.50;56.02
72942;BME280;69665;55.822;37.330;2024-03-25T01:56:31;97966.38;;;5.67;56.05
72942;BME280;69665;55.822;37.330;2024-03-25T01:59:01;97972.56;;;5.64;56.40
72942;BME280;69665;55.822;37.330;2024-03-25T02:01:28;97960.84;;;5.54;56.06
72942;BME280;69665;55.822;37.330;2024-03-25T02:03:55;97973.50;;;5.63;55.92
72942;BME280;69665;55.822;37.330;2024-03-25T02:06:21;97968.66;;;5.54;56.18
72942;BME280;69665;55.822;37.330;2024-03-25T02:08:48;97937.31;;;5.35;55.64
72942;BME280;69665;55.822;37.330;2024-03-25T02:11:15;97987.47;;;5.62;55.91
72942;BME280;69665;55.822;37.330;2024-03-25T02:13:42;97977.16;;;5.59;55.66
72942;BME280;69665;55.822;37.330;2024-03-25T02:16:08;97994.78;;;5.73;55.50
72942;BME280;69665;55.822;37.330;2024-03-25T02:18:53;97970.63;;;5.49;55.34
72942;BME280;69665;55.822;37.330;2024-03-25T02:21:19;98000.00;;;5.54;55.79
72942;BME280;69665;55.822;37.330;2024-03-25T02:23:46;98011.41;;;5.52;55.85
72942;BME280;69665;55.822;37.330;2024-03-25T02:26:13;98002.81;;;5.50;55.99
72942;BME280;69665;55.822;37.330;2024-03-25T02:28:39;97997.88;;;5.43;56.27
72942;BME280;69665;55.822;37.330;2024-03-25T02:31:04;97996.72;;;5.49;55.90
72942;BME280;69665;55.822;37.330;2024-03-25T02:33:30;98014.47;;;5.61;56.25
72942;BME280;69665;55.822;37.330;2024-03-25T02:35:56;98022.97;;;5.66;55.77
72942;BME280;69665;55.822;37.330;2024-03-25T02:38:21;98025.72;;;5.63;56.38
72942;BME280;69665;55.822;37.330;2024-03-25T02:40:48;98007.91;;;5.53;55.94
72942;BME280;69665;55.822;37.330;2024-03-25T02:43:14;98008.88;;;5.50;56.01
72942;BME280;69665;55.822;37.330;2024-03-25T02:45:40;98041.44;;;5.62;55.98
72942;BME280;69665;55.822;37.330;2024-03-25T02:48:06;98039.94;;;5.56;56.48
72942;BME280;69665;55.822;37.330;2024-03-25T02:50:32;98020.72;;;5.38;56.15
72942;BME280;69665;55.822;37.330;2024-03-25T02:52:57;98049.41;;;5.59;56.10
72942;BME280;69665;55.822;37.330;2024-03-25T02:55:23;98049.47;;;5.57;56.11
72942;BME280;69665;55.822;37.330;2024-03-25T02:57:49;98066.38;;;5.69;56.43
72942;BME280;69665;55.822;37.330;2024-03-25T03:00:14;98073.91;;;5.75;56.17
72942;BME280;69665;55.822;37.330;2024-03-25T03:02:40;98063.84;;;5.67;55.54
72942;BME280;69665;55.822;37.330;2024-03-25T03:05:06;98073.84;;;5.76;55.53
72942;BME280;69665;55.822;37.330;2024-03-25T03:07:31;98053.25;;;5.70;55.51
72942;BME280;69665;55.822;37.330;2024-03-25T03:09:57;98086.91;;;5.76;55.69
72942;BME280;69665;55.822;37.330;2024-03-25T03:12:23;98074.47;;;5.63;55.51
72942;BME280;69665;55.822;37.330;2024-03-25T03:14:48;98093.03;;;5.75;55.38
72942;BME280;69665;55.822;37.330;2024-03-25T03:17:14;98109.31;;;5.82;55.76
72942;BME280;69665;55.822;37.330;2024-03-25T03:19:41;98069.91;;;5.68;55.85
72942;BME280;69665;55.822;37.330;2024-03-25T03:22:07;98102.88;;;5.91;55.43
72942;BME280;69665;55.822;37.330;2024-03-25T03:24:32;98105.44;;;5.92;54.88
72942;BME280;69665;55.822;37.330;2024-03-25T03:26:58;98102.81;;;5.92;55.50
72942;BME280;69665;55.822;37.330;2024-03-25T03:29:24;98079.22;;;5.73;55.35
72942;BME280;69665;55.822;37.330;2024-03-25T03:31:49;98107.47;;;5.84;54.84
72942;BME280;69665;55.822;37.330;2024-03-25T03:34:15;98115.88;;;5.92;55.20
72942;BME280;69665;55.822;37.330;2024-03-25T03:36:41;98128.88;;;5.94;54.64
72942;BME280;69665;55.822;37.330;2024-03-25T03:39:08;98128.81;;;5.95;55.27
72942;BME280;69665;55.822;37.330;2024-03-25T03:41:35;98131.41;;;5.95;54.80
72942;BME280;69665;55.822;37.330;2024-03-25T03:44:01;98133.97;;;5.97;54.91
72942;BME280;69665;55.822;37.330;2024-03-25T03:46:27;98136.41;;;6.00;54.70
72942;BME280;69665;55.822;37.330;2024-03-25T03:48:53;98114.28;;;5.88;54.77
72942;BME280;69665;55.822;37.330;2024-03-25T03:51:18;98144.25;;;6.00;54.56
72942;BME280;69665;55.822;37.330;2024-03-25T03:53:44;98152.16;;;5.98;55.12
72942;BME280;69665;55.822;37.330;2024-03-25T03:56:10;98142.00;;;5.92;54.30
72942;BME280;69665;55.822;37.330;2024-03-25T03:58:35;98153.22;;;5.94;54.75
72942;BME280;69665;55.822;37.330;2024-03-25T04:01:01;98152.25;;;5.97;54.48
72942;BME280;69665;55.822;37.330;2024-03-25T04:03:27;98149.06;;;5.90;54.51
72942;BME280;69665;55.822;37.330;2024-03-25T04:05:53;98162.69;;;5.97;54.55
72942;BME280;69665;55.822;37.330;2024-03-25T04:08:19;98133.97;;;5.75;54.61
72942;BME280;69665;55.822;37.330;2024-03-25T04:10:45;98175.16;;;5.90;54.65
72942;BME280;69665;55.822;37.330;2024-03-25T04:13:11;98174.53;;;5.84;54.80
72942;BME280;69665;55.822;37.330;2024-03-25T04:15:40;98147.03;;;5.75;54.76
72942;BME280;69665;55.822;37.330;2024-03-25T04:18:06;98174.91;;;5.96;54.27
72942;BME280;69665;55.822;37.330;2024-03-25T04:20:39;98180.69;;;6.03;54.20
72942;BME280;69665;55.822;37.330;2024-03-25T04:23:06;98151.09;;;5.82;54.22
72942;BME280;69665;55.822;37.330;2024-03-25T04:25:36;98155.59;;;5.78;54.71
72942;BME280;69665;55.822;37.330;2024-03-25T04:28:04;98164.34;;;5.77;54.44
72942;BME280;69665;55.822;37.330;2024-03-25T04:30:32;98191.50;;;5.95;54.38
72942;BME280;69665;55.822;37.330;2024-03-25T04:32:59;98203.44;;;6.01;54.31
72942;BME280;69665;55.822;37.330;2024-03-25T04:35:24;98165.66;;;5.88;54.15
72942;BME280;69665;55.822;37.330;2024-03-25T04:37:50;98205.47;;;6.15;54.37
72942;BME280;69665;55.822;37.330;2024-03-25T04:40:16;98196.13;;;6.09;54.52
72942;BME280;69665;55.822;37.330;2024-03-25T04:42:45;98209.66;;;6.19;54.26
72942;BME280;69665;55.822;37.330;2024-03-25T04:45:11;98183.84;;;6.11;53.68
72942;BME280;69665;55.822;37.330;2024-03-25T04:47:38;98227.84;;;6.40;53.71
72942;BME280;69665;55.822;37.330;2024-03-25T04:50:04;98228.28;;;6.50;53.77
72942;BME280;69665;55.822;37.330;2024-03-25T04:52:30;98228.47;;;6.66;54.01
72942;BME280;69665;55.822;37.330;2024-03-25T04:54:56;98217.16;;;6.84;53.41
72942;BME280;69665;55.822;37.330;2024-03-25T04:57:22;98238.94;;;7.03;53.66
72942;BME280;69665;55.822;37.330;2024-03-25T04:59:48;98227.19;;;7.12;52.84
72942;BME280;69665;55.822;37.330;2024-03-25T05:02:13;98234.38;;;7.44;52.57
72942;BME280;69665;55.822;37.330;2024-03-25T05:04:39;98238.38;;;8.05;52.29
72942;BME280;69665;55.822;37.330;2024-03-25T05:07:05;98243.16;;;8.48;51.94
72942;BME280;69665;55.822;37.330;2024-03-25T05:09:31;98209.41;;;12.46;49.69
72942;BME280;69665;55.822;37.330;2024-03-25T05:11:57;98232.31;;;14.86;44.61
72942;BME280;69665;55.822;37.330;2024-03-25T05:14:23;98247.03;;;18.04;41.28
72942;BME280;69665;55.822;37.330;2024-03-25T05:16:49;98223.78;;;20.18;38.09
72942;BME280;69665;55.822;37.330;2024-03-25T05:19:15;98244.00;;;21.84;35.90
72942;BME280;69665;55.822;37.330;2024-03-25T05:21:41;98246.66;;;22.51;35.12
72942;BME280;69665;55.822;37.330;2024-03-25T05:24:07;98258.47;;;23.77;33.80
72942;BME280;69665;55.822;37.330;2024-03-25T05:26:32;98257.41;;;24.62;32.47
72942;BME280;69665;55.822;37.330;2024-03-25T05:28:58;98270.38;;;23.27;32.73
72942;BME280;69665;55.822;37.330;2024-03-25T05:31:24;98278.19;;;22.89;33.44
72942;BME280;69665;55.822;37.330;2024-03-25T05:33:50;98276.56;;;21.97;33.35
72942;BME280;69665;55.822;37.330;2024-03-25T05:36:16;98263.94;;;20.09;34.31
72942;BME280;69665;55.822;37.330;2024-03-25T05:38:43;98262.56;;;18.47;35.79
72942;BME280;69665;55.822;37.330;2024-03-25T05:41:09;98289.59;;;17.35;36.61
72942;BME280;69665;55.822;37.330;2024-03-25T05:43:35;98270.91;;;16.53;37.36
72942;BME280;69665;55.822;37.330;2024-03-25T05:46:01;98303.84;;;15.98;37.80
72942;BME280;69665;55.822;37.330;2024-03-25T05:48:28;98306.09;;;15.25;38.72
72942;BME280;69665;55.822;37.330;2024-03-25T05:51:04;98297.94;;;14.71;38.50
72942;BME280;69665;55.822;37.330;2024-03-25T05:53:33;98310.13;;;14.15;40.22
72942;BME280;69665;55.822;37.330;2024-03-25T05:56:02;98314.28;;;13.82;39.89
72942;BME280;69665;55.822;37.330;2024-03-25T05:58:28;98318.81;;;15.99;39.10
72942;BME280;69665;55.822;37.330;2024-03-25T06:00:54;98315.25;;;15.66;38.55
72942;BME280;69665;55.822;37.330;2024-03-25T06:03:20;98318.47;;;16.35;37.80
72942;BME280;69665;55.822;37.330;2024-03-25T06:05:46;98322.19;;;18.26;36.39
72942;BME280;69665;55.822;37.330;2024-03-25T06:08:12;98303.78;;;17.94;35.92
72942;BME280;69665;55.822;37.330;2024-03-25T06:10:50;98325.63;;;17.79;36.41
72942;BME280;69665;55.822;37.330;2024-03-25T06:13:17;98333.38;;;18.01;36.32
72942;BME280;69665;55.822;37.330;2024-03-25T06:15:42;98311.56;;;17.67;35.88
72942;BME280;69665;55.822;37.330;2024-03-25T06:18:08;98343.09;;;19.92;34.87
72942;BME280;69665;55.822;37.330;2024-03-25T06:20:34;98343.78;;;20.92;34.06
72942;BME280;69665;55.822;37.330;2024-03-25T06:23:00;98311.88;;;19.92;33.93
72942;BME280;69665;55.822;37.330;2024-03-25T06:25:27;98337.75;;;19.08;34.46
72942;BME280;69665;55.822;37.330;2024-03-25T06:27:54;98360.31;;;18.08;34.93
72942;BME280;69665;55.822;37.330;2024-03-25T06:30:20;98347.47;;;17.21;35.84
72942;BME280;69665;55.822;37.330;2024-03-25T06:33:04;98377.81;;;16.45;36.52
72942;BME280;69665;55.822;37.330;2024-03-25T06:35:49;98380.34;;;15.37;36.96
72942;BME280;69665;55.822;37.330;2024-03-25T06:38:15;98382.28;;;14.77;37.88
72942;BME280;69665;55.822;37.330;2024-03-25T06:40:40;98394.22;;;14.35;38.20
72942;BME280;69665;55.822;37.330;2024-03-25T06:43:06;98375.03;;;13.84;38.89
72942;BME280;69665;55.822;37.330;2024-03-25T06:45:32;98394.34;;;13.61;38.84
72942;BME280;69665;55.822;37.330;2024-03-25T06:47:57;98401.75;;;13.30;39.32
72942;BME280;69665;55.822;37.330;2024-03-25T06:50:24;98404.03;;;13.09;39.70
72942;BME280;69665;55.822;37.330;2024-03-25T06:52:49;98408.69;;;12.93;39.38
72942;BME280;69665;55.822;37.330;2024-03-25T06:55:15;98386.34;;;12.72;39.56
72942;BME280;69665;55.822;37.330;2024-03-25T06:57:41;98412.03;;;12.82;39.63
72942;BME280;69665;55.822;37.330;2024-03-25T07:00:07;98410.22;;;12.70;40.44
72942;BME280;69665;55.822;37.330;2024-03-25T07:02:39;98419.06;;;12.56;39.93
72942;BME280;69665;55.822;37.330;2024-03-25T07:05:06;98416.38;;;12.44;39.74
72942;BME280;69665;55.822;37.330;2024-03-25T07:07:32;98397.44;;;12.10;40.18
72942;BME280;69665;55.822;37.330;2024-03-25T07:10:00;98415.16;;;12.08;39.88
72942;BME280;69665;55.822;37.330;2024-03-25T07:12:25;98428.19;;;11.97;39.94
72942;BME280;69665;55.822;37.330;2024-03-25T07:14:52;98439.75;;;12.09;39.82
72942;BME280;69665;55.822;37.330;2024-03-25T07:17:18;98417.81;;;12.35;40.03
72942;BME280;69665;55.822;37.330;2024-03-25T07:19:44;98438.84;;;12.76;39.15
72942;BME280;69665;55.822;37.330;2024-03-25T07:22:10;98433.56;;;12.64;39.09
72942;BME280;69665;55.822;37.330;2024-03-25T07:24:36;98434.44;;;12.77;38.74
72942;BME280;69665;55.822;37.330;2024-03-25T07:27:02;98422.09;;;12.90;39.33
72942;BME280;69665;55.822;37.330;2024-03-25T07:29:28;98439.34;;;12.96;39.43
72942;BME280;69665;55.822;37.330;2024-03-25T07:31:54;98449.44;;;12.76;39.06
72942;BME280;69665;55.822;37.330;2024-03-25T07:34:19;98457.47;;;12.48;38.94
72942;BME280;69665;55.822;37.330;2024-03-25T07:36:45;98462.75;;;12.48;39.33
72942;BME280;69665;55.822;37.330;2024-03-25T07:39:12;98459.59;;;12.55;38.90
72942;BME280;69665;55.822;37.330;2024-03-25T07:41:38;98453.25;;;12.85;39.40
72942;BME280;69665;55.822;37.330;2024-03-25T07:44:04;98457.19;;;13.19;39.02
72942;BME280;69665;55.822;37.330;2024-03-25T07:46:30;98485.50;;;13.17;38.74
72942;BME280;69665;55.822;37.330;2024-03-25T07:48:56;98482.97;;;12.88;38.57
72942;BME280;69665;55.822;37.330;2024-03-25T07:51:22;98475.66;;;12.79;38.79
72942;BME280;69665;55.822;37.330;2024-03-25T07:53:47;98489.75;;;14.08;38.34
72942;BME280;69665;55.822;37.330;2024-03-25T07:56:17;98472.13;;;15.39;36.33
72942;BME280;69665;55.822;37.330;2024-03-25T07:58:43;98484.66;;;15.37;36.54
72942;BME280;69665;55.822;37.330;2024-03-25T08:01:09;98501.81;;;15.44;36.44
72942;BME280;69665;55.822;37.330;2024-03-25T08:03:34;98498.16;;;15.34;36.72
72942;BME280;69665;55.822;37.330;2024-03-25T08:06:00;98503.09;;;15.27;36.59
72942;BME280;69665;55.822;37.330;2024-03-25T08:08:26;98489.22;;;15.35;36.55
72942;BME280;69665;55.822;37.330;2024-03-25T08:10:53;98499.53;;;15.51;36.58
72942;BME280;69665;55.822;37.330;2024-03-25T08:13:19;98481.81;;;15.51;36.10
72942;BME280;69665;55.822;37.330;2024-03-25T08:15:47;98496.88;;;15.51;36.60
72942;BME280;69665;55.822;37.330;2024-03-25T08:18:13;98487.41;;;15.24;36.44
72942;BME280;69665;55.822;37.330;2024-03-25T08:20:39;98502.88;;;14.83;35.94
72942;BME280;69665;55.822;37.330;2024-03-25T08:23:05;98501.13;;;14.34;36.68
72942;BME280;69665;55.822;37.330;2024-03-25T08:25:31;98497.03;;;14.05;36.96
72942;BME280;69665;55.822;37.330;2024-03-25T08:27:57;98499.25;;;14.11;37.14
72942;BME280;69665;55.822;37.330;2024-03-25T08:30:24;98506.69;;;14.18;37.26
72942;BME280;69665;55.822;37.330;2024-03-25T08:32:50;98510.19;;;14.06;36.94
72942;BME280;69665;55.822;37.330;2024-03-25T08:35:17;98488.50;;;13.88;37.72
72942;BME280;69665;55.822;37.330;2024-03-25T08:37:43;98511.63;;;14.48;37.20
72942;BME280;69665;55.822;37.330;2024-03-25T08:40:09;98517.50;;;14.88;36.38
72942;BME280;69665;55.822;37.330;2024-03-25T08:42:35;98508.69;;;14.88;36.34
72942;BME280;69665;55.822;37.330;2024-03-25T08:45:03;98514.84;;;14.88;36.92
72942;BME280;69665;55.822;37.330;2024-03-25T08:47:31;98513.66;;;14.92;36.33
72942;BME280;69665;55.822;37.330;2024-03-25T08:49:56;98516.84;;;14.98;36.50
72942;BME280;69665;55.822;37.330;2024-03-25T08:52:22;98483.13;;;15.11;36.32
72942;BME280;69665;55.822;37.330;2024-03-25T08:54:48;98519.97;;;15.26;36.01
72942;BME280;69665;55.822;37.330;2024-03-25T08:57:14;98517.75;;;15.20;35.87
72942;BME280;69665;55.822;37.330;2024-03-25T08:59:40;98526.03;;;15.40;36.49
72942;BME280;69665;55.822;37.330;2024-03-25T09:02:06;98524.66;;;15.23;36.49
72942;BME280;69665;55.822;37.330;2024-03-25T09:04:33;98531.69;;;15.11;36.25
72942;BME280;69665;55.822;37.330;2024-03-25T09:07:03;98510.50;;;14.87;36.20
72942;BME280;69665;55.822;37.330;2024-03-25T09:09:28;98537.72;;;15.02;36.68
72942;BME280;69665;55.822;37.330;2024-03-25T09:12:12;98523.78;;;14.38;36.83
72942;BME280;69665;55.822;37.330;2024-03-25T09:14:38;98546.34;;;14.31;36.49
72942;BME280;69665;55.822;37.330;2024-03-25T09:17:04;98539.41;;;14.05;37.05
72942;BME280;69665;55.822;37.330;2024-03-25T09:19:30;98546.72;;;13.88;36.96
72942;BME280;69665;55.822;37.330;2024-03-25T09:21:56;98552.03;;;13.88;37.38
72942;BME280;69665;55.822;37.330;2024-03-25T09:24:22;98544.50;;;13.95;36.98
72942;BME280;69665;55.822;37.330;2024-03-25T09:26:50;98557.84;;;13.93;36.71
72942;BME280;69665;55.822;37.330;2024-03-25T09:29:15;98555.00;;;13.97;37.30
72942;BME280;69665;55.822;37.330;2024-03-25T09:31:41;98564.19;;;13.91;37.24
72942;BME280;69665;55.822;37.330;2024-03-25T09:34:07;98562.28;;;13.80;36.61
72942;BME280;69665;55.822;37.330;2024-03-25T09:36:32;98566.22;;;13.75;37.55
72942;BME280;69665;55.822;37.330;2024-03-25T09:38:58;98547.66;;;13.49;36.93
72942;BME280;69665;55.822;37.330;2024-03-25T09:41:24;98556.53;;;13.48;37.25
72942;BME280;69665;55.822;37.330;2024-03-25T09:43:54;98546.47;;;13.41;36.94
72942;BME280;69665;55.822;37.330;2024-03-25T09:46:21;98574.66;;;13.80;36.81
72942;BME280;69665;55.822;37.330;2024-03-25T09:48:48;98551.19;;;13.75;37.25
72942;BME280;69665;55.822;37.330;2024-03-25T09:51:14;98573.81;;;13.67;36.87
72942;BME280;69665;55.822;37.330;2024-03-25T09:53:40;98545.88;;;13.50;37.25
72942;BME280;69665;55.822;37.330;2024-03-25T09:56:06;98582.81;;;13.64;37.26
72942;BME280;69665;55.822;37.330;2024-03-25T09:58:33;98569.53;;;13.39;36.53
72942;BME280;69665;55.822;37.330;2024-03-25T10:01:00;98585.19;;;13.42;37.14
72942;BME280;69665;55.822;37.330;2024-03-25T10:03:25;98588.03;;;13.39;37.18
72942;BME280;69665;55.822;37.330;2024-03-25T10:05:51;98586.00;;;13.30;37.75
72942;BME280;69665;55.822;37.330;2024-03-25T10:08:23;98588.97;;;13.38;36.57
72942;BME280;69665;55.822;37.330;2024-03-25T10:10:52;98588.41;;;13.59;37.36
72942;BME280;69665;55.822;37.330;2024-03-25T10:13:21;98563.66;;;13.73;36.85
72942;BME280;69665;55.822;37.330;2024-03-25T10:15:48;98586.31;;;13.90;36.43
72942;BME280;69665;55.822;37.330;2024-03-25T10:18:14;98587.81;;;13.94;36.24
72942;BME280;69665;55.822;37.330;2024-03-25T10:20:52;98592.03;;;14.09;35.70
72942;BME280;69665;55.822;37.330;2024-03-25T10:23:23;98586.19;;;14.30;35.83
72942;BME280;69665;55.822;37.330;2024-03-25T10:25:53;98596.06;;;14.27;36.93
72942;BME280;69665;55.822;37.330;2024-03-25T10:28:20;98597.66;;;14.43;36.07
72942;BME280;69665;55.822;37.330;2024-03-25T10:30:46;98601.13;;;14.56;36.28
72942;BME280;69665;55.822;37.330;2024-03-25T10:33:12;98597.63;;;14.55;36.17
72942;BME280;69665;55.822;37.330;2024-03-25T10:35:39;98598.91;;;14.63;35.60
72942;BME280;69665;55.822;37.330;2024-03-25T10:38:08;98600.81;;;14.60;35.43
72942;BME280;69665;55.822;37.330;2024-03-25T10:40:37;98604.94;;;14.65;34.56
72942;BME280;69665;55.822;37.330;2024-03-25T10:43:04;98598.56;;;14.67;35.86
72942;BME280;69665;55.822;37.330;2024-03-25T10:45:46;98607.28;;;14.56;35.62
72942;BME280;69665;55.822;37.330;2024-03-25T10:48:19;98587.03;;;14.30;36.19
72942;BME280;69665;55.822;37.330;2024-03-25T10:50:46;98605.28;;;14.09;36.03
72942;BME280;69665;55.822;37.330;2024-03-25T10:53:14;98598.38;;;13.69;36.33
72942;BME280;69665;55.822;37.330;2024-03-25T10:55:40;98604.66;;;13.41;36.61
72942;BME280;69665;55.822;37.330;2024-03-25T10:58:07;98613.28;;;13.30;37.03
72942;BME280;69665;55.822;37.330;2024-03-25T11:00:37;98608.97;;;13.15;36.94
72942;BME280;69665;55.822;37.330;2024-03-25T11:03:04;98611.34;;;13.05;36.63
72942;BME280;69665;55.822;37.330;2024-03-25T11:05:29;98617.59;;;13.18;37.19
72942;BME280;69665;55.822;37.330;2024-03-25T11:07:55;98609.94;;;13.41;36.89
72942;BME280;69665;55.822;37.330;2024-03-25T11:10:29;98602.88;;;13.54;36.86
72942;BME280;69665;55.822;37.330;2024-03-25T11:12:55;98588.19;;;13.63;36.41
72942;BME280;69665;55.822;37.330;2024-03-25T11:15:20;98587.59;;;13.72;36.31
72942;BME280;69665;55.822;37.330;2024-03-25T11:17:50;98586.94;;;13.68;36.43
72942;BME280;69665;55.822;37.330;2024-03-25T11:20:17;98608.00;;;13.82;36.55
72942;BME280;69665;55.822;37.330;2024-03-25T11:22:50;98602.59;;;13.84;35.73
72942;BME280;69665;55.822;37.330;2024-03-25T11:25:17;98595.41;;;13.73;36.04
72942;BME280;69665;55.822;37.330;2024-03-25T11:27:44;98616.69;;;13.72;36.40
72942;BME280;69665;55.822;37.330;2024-03-25T11:30:11;98610.09;;;13.77;36.43
72942;BME280;69665;55.822;37.330;2024-03-25T11:32:56;98612.44;;;13.30;35.53
72942;BME280;69665;55.822;37.330;2024-03-25T11:35:21;98621.69;;;12.96;36.75
72942;BME280;69665;55.822;37.330;2024-03-25T11:37:49;98620.28;;;12.76;36.61
72942;BME280;69665;55.822;37.330;2024-03-25T11:40:17;98599.69;;;12.40;37.00
72942;BME280;69665;55.822;37.330;2024-03-25T11:42:45;98626.28;;;12.08;36.94
72942;BME280;69665;55.822;37.330;2024-03-25T11:47:45;98627.84;;;11.21;37.93
72942;BME280;69665;55.822;37.330;2024-03-25T11:50:18;98624.06;;;10.79;38.75
72942;BME280;69665;55.822;37.330;2024-03-25T11:52:45;98626.50;;;10.51;39.22
72942;BME280;69665;55.822;37.330;2024-03-25T11:55:11;98619.69;;;10.31;39.54
72942;BME280;69665;55.822;37.330;2024-03-25T11:57:38;98625.50;;;10.38;39.58
72942;BME280;69665;55.822;37.330;2024-03-25T12:00:05;98621.38;;;10.15;39.55
72942;BME280;69665;55.822;37.330;2024-03-25T12:02:45;98596.72;;;9.67;39.53
72942;BME280;69665;55.822;37.330;2024-03-25T12:05:13;98615.84;;;9.53;39.83
72942;BME280;69665;55.822;37.330;2024-03-25T12:07:39;98625.94;;;9.44;40.03
72942;BME280;69665;55.822;37.330;2024-03-25T12:10:05;98602.78;;;9.35;40.47
72942;BME280;69665;55.822;37.330;2024-03-25T12:12:50;98629.50;;;9.43;40.02
72942;BME280;69665;55.822;37.330;2024-03-25T12:15:21;98637.38;;;9.43;40.47
72942;BME280;69665;55.822;37.330;2024-03-25T12:17:47;98621.59;;;9.26;40.25
72942;BME280;69665;55.822;37.330;2024-03-25T12:20:13;98639.13;;;9.25;40.74
72942;BME280;69665;55.822;37.330;2024-03-25T12:22:44;98635.94;;;9.18;40.42
72942;BME280;69665;55.822;37.330;2024-03-25T12:25:10;98633.00;;;9.07;41.15
72942;BME280;69665;55.822;37.330;2024-03-25T12:27:37;98641.88;;;9.05;41.09
72942;BME280;69665;55.822;37.330;2024-03-25T12:30:08;98634.56;;;8.93;40.61
72942;BME280;69665;55.822;37.330;2024-03-25T12:32:41;98646.72;;;8.95;40.53
72942;BME280;69665;55.822;37.330;2024-03-25T12:35:11;98650.13;;;8.97;40.96
72942;BME280;69665;55.822;37.330;2024-03-25T12:37:38;98634.66;;;8.91;41.21
72942;BME280;69665;55.822;37.330;2024-03-25T12:40:09;98641.47;;;8.95;41.41
72942;BME280;69665;55.822;37.330;2024-03-25T12:42:35;98636.81;;;8.83;41.15
72942;BME280;69665;55.822;37.330;2024-03-25T12:45:01;98641.41;;;8.78;40.89
72942;BME280;69665;55.822;37.330;2024-03-25T12:47:30;98636.59;;;8.69;41.09
72942;BME280;69665;55.822;37.330;2024-03-25T12:49:57;98639.56;;;8.61;41.13
72942;BME280;69665;55.822;37.330;2024-03-25T12:52:23;98613.91;;;8.49;41.05
72942;BME280;69665;55.822;37.330;2024-03-25T12:54:49;98611.28;;;8.49;41.73
72942;BME280;69665;55.822;37.330;2024-03-25T12:57:14;98614.09;;;8.44;41.51